sensor_id;sensor_type;location;lat;lon;timestamp;P1;durP1;ratioP1;P2;durP2;ratioP2
19167;SDS011;9716;53.114;18.040;2023-04-06T00:00:41;55.43;;;15.50;;
19167;SDS011;9716;53.114;18.040;2023-04-06T00:03:17;48.77;;;15.50;;
19167;SDS011;9716;53.114;18.040;2023-04-06T00:05:46;42.70;;;15.87;;
19167;SDS011;9716;53.114;18.040;2023-04-06T00:08:16;51.63;;;15.23;;
19167;SDS011;9716;53.114;18.040;2023-04-06T00:10:46;61.57;;;17.27;;
19167;SDS011;9716;53.114;18.040;2023-04-06T00:13:14;48.07;;;15.60;;
19167;SDS011;9716;53.114;18.040;2023-04-06T00:15:43;42.90;;;14.50;;
19167;SDS011;9716;53.114;18.040;2023-04-06T00:18:11;47.67;;;14.93;;
19167;SDS011;9716;53.114;18.040;2023-04-06T00:20:39;35.97;;;15.03;;
19167;SDS011;9716;53.114;18.040;2023-04-06T00:23:08;38.80;;;12.70;;
19167;SDS011;9716;53.114;18.040;2023-04-06T00:25:37;41.73;;;14.87;;
19167;SDS011;9716;53.114;18.040;2023-04-06T00:28:06;49.00;;;15.70;;
19167;SDS011;9716;53.114;18.040;2023-04-06T00:30:35;38.97;;;15.03;;
19167;SDS011;9716;53.114;18.040;2023-04-06T00:33:03;35.73;;;15.03;;
19167;SDS011;9716;53.114;18.040;2023-04-06T00:35:32;41.83;;;13.10;;
19167;SDS011;9716;53.114;18.040;2023-04-06T00:38:00;39.20;;;14.37;;
19167;SDS011;9716;53.114;18.040;2023-04-06T00:40:29;34.63;;;12.47;;
19167;SDS011;9716;53.114;18.040;2023-04-06T00:42:57;46.30;;;13.63;;
19167;SDS011;9716;53.114;18.040;2023-04-06T00:45:27;43.03;;;13.27;;
19167;SDS011;9716;53.114;18.040;2023-04-06T00:47:56;38.10;;;13.10;;
19167;SDS011;9716;53.114;18.040;2023-04-06T00:50:25;40.97;;;13.30;;
19167;SDS011;9716;53.114;18.040;2023-04-06T00:52:53;27.17;;;12.93;;
19167;SDS011;9716;53.114;18.040;2023-04-06T00:55:22;30.40;;;13.17;;
19167;SDS011;9716;53.114;18.040;2023-04-06T00:57:50;27.07;;;11.27;;
19167;SDS011;9716;53.114;18.040;2023-04-06T01:00:19;34.67;;;11.73;;
19167;SDS011;9716;53.114;18.040;2023-04-06T01:02:49;31.90;;;11.03;;
19167;SDS011;9716;53.114;18.040;2023-04-06T01:05:17;31.60;;;11.10;;
19167;SDS011;9716;53.114;18.040;2023-04-06T01:07:46;30.13;;;10.63;;
19167;SDS011;9716;53.114;18.040;2023-04-06T01:10:22;20.87;;;10.90;;
19167;SDS011;9716;53.114;18.040;2023-04-06T01:12:51;34.93;;;10.23;;
19167;SDS011;9716;53.114;18.040;2023-04-06T01:15:19;31.47;;;10.93;;
19167;SDS011;9716;53.114;18.040;2023-04-06T01:17:50;25.30;;;10.77;;
19167;SDS011;9716;53.114;18.040;2023-04-06T01:20:19;29.47;;;10.57;;
19167;SDS011;9716;53.114;18.040;2023-04-06T01:22:49;28.27;;;11.17;;
19167;SDS011;9716;53.114;18.040;2023-04-06T01:25:17;32.20;;;9.33;;
19167;SDS011;9716;53.114;18.040;2023-04-06T01:27:46;22.40;;;9.90;;
19167;SDS011;9716;53.114;18.040;2023-04-06T01:30:14;16.97;;;8.97;;
19167;SDS011;9716;53.114;18.040;2023-04-06T01:32:43;26.33;;;10.00;;
19167;SDS011;9716;53.114;18.040;2023-04-06T01:35:12;25.57;;;9.27;;
19167;SDS011;9716;53.114;18.040;2023-04-06T01:37:40;25.63;;;9.90;;
19167;SDS011;9716;53.114;18.040;2023-04-06T01:40:11;29.20;;;9.87;;
19167;SDS011;9716;53.114;18.040;2023-04-06T01:42:40;27.93;;;11.20;;
19167;SDS011;9716;53.114;18.040;2023-04-06T01:45:09;21.77;;;10.27;;
19167;SDS011;9716;53.114;18.040;2023-04-06T01:47:37;25.83;;;10.17;;
19167;SDS011;9716;53.114;18.040;2023-04-06T01:50:06;24.10;;;9.27;;
19167;SDS011;9716;53.114;18.040;2023-04-06T01:52:35;24.70;;;10.37;;
19167;SDS011;9716;53.114;18.040;2023-04-06T01:55:04;25.00;;;11.07;;
19167;SDS011;9716;53.114;18.040;2023-04-06T01:57:34;18.97;;;9.40;;
19167;SDS011;9716;53.114;18.040;2023-04-06T02:00:03;31.33;;;10.13;;
19167;SDS011;9716;53.114;18.040;2023-04-06T02:02:32;25.03;;;10.43;;
19167;SDS011;9716;53.114;18.040;2023-04-06T02:05:01;29.27;;;10.27;;
19167;SDS011;9716;53.114;18.040;2023-04-06T02:07:30;29.13;;;9.17;;
19167;SDS011;9716;53.114;18.040;2023-04-06T02:09:58;28.23;;;10.80;;
19167;SDS011;9716;53.114;18.040;2023-04-06T02:12:26;23.07;;;9.83;;
19167;SDS011;9716;53.114;18.040;2023-04-06T02:14:56;23.37;;;9.73;;
19167;SDS011;9716;53.114;18.040;2023-04-06T02:17:25;29.63;;;10.27;;
19167;SDS011;9716;53.114;18.040;2023-04-06T02:19:53;24.63;;;10.57;;
19167;SDS011;9716;53.114;18.040;2023-04-06T02:22:21;25.80;;;9.90;;
19167;SDS011;9716;53.114;18.040;2023-04-06T02:24:50;23.10;;;10.40;;
19167;SDS011;9716;53.114;18.040;2023-04-06T02:27:18;25.00;;;9.50;;
19167;SDS011;9716;53.114;18.040;2023-04-06T02:29:47;23.83;;;10.40;;
19167;SDS011;9716;53.114;18.040;2023-04-06T02:32:16;28.93;;;9.77;;
19167;SDS011;9716;53.114;18.040;2023-04-06T02:34:45;25.10;;;10.03;;
19167;SDS011;9716;53.114;18.040;2023-04-06T02:37:13;33.60;;;11.13;;
19167;SDS011;9716;53.114;18.040;2023-04-06T02:39:42;25.17;;;9.07;;
19167;SDS011;9716;53.114;18.040;2023-04-06T02:42:10;24.03;;;9.47;;
19167;SDS011;9716;53.114;18.040;2023-04-06T02:44:39;24.07;;;10.13;;
19167;SDS011;9716;53.114;18.040;2023-04-06T02:47:07;23.93;;;9.50;;
19167;SDS011;9716;53.114;18.040;2023-04-06T02:49:37;29.33;;;9.87;;
19167;SDS011;9716;53.114;18.040;2023-04-06T02:52:06;24.63;;;10.63;;
19167;SDS011;9716;53.114;18.040;2023-04-06T02:54:34;28.50;;;10.57;;
19167;SDS011;9716;53.114;18.040;2023-04-06T02:57:03;31.50;;;9.77;;
19167;SDS011;9716;53.114;18.040;2023-04-06T02:59:32;26.97;;;10.07;;
19167;SDS011;9716;53.114;18.040;2023-04-06T03:02:00;24.13;;;10.47;;
19167;SDS011;9716;53.114;18.040;2023-04-06T03:04:29;24.97;;;10.67;;
19167;SDS011;9716;53.114;18.040;2023-04-06T03:06:58;18.97;;;10.10;;
19167;SDS011;9716;53.114;18.040;2023-04-06T03:09:27;22.43;;;10.17;;
19167;SDS011;9716;53.114;18.040;2023-04-06T03:11:56;23.80;;;10.17;;
19167;SDS011;9716;53.114;18.040;2023-04-06T03:14:24;17.30;;;9.57;;
19167;SDS011;9716;53.114;18.040;2023-04-06T03:16:54;25.77;;;10.67;;
19167;SDS011;9716;53.114;18.040;2023-04-06T03:19:22;25.23;;;10.50;;
19167;SDS011;9716;53.114;18.040;2023-04-06T03:21:51;34.33;;;11.57;;
19167;SDS011;9716;53.114;18.040;2023-04-06T03:24:20;25.03;;;10.10;;
19167;SDS011;9716;53.114;18.040;2023-04-06T03:26:49;26.33;;;10.70;;
19167;SDS011;9716;53.114;18.040;2023-04-06T03:29:17;26.50;;;11.30;;
19167;SDS011;9716;53.114;18.040;2023-04-06T03:31:45;30.63;;;11.70;;
19167;SDS011;9716;53.114;18.040;2023-04-06T03:34:14;26.10;;;10.33;;
19167;SDS011;9716;53.114;18.040;2023-04-06T03:36:42;28.47;;;11.10;;
19167;SDS011;9716;53.114;18.040;2023-04-06T03:39:12;29.63;;;11.97;;
19167;SDS011;9716;53.114;18.040;2023-04-06T03:41:42;30.37;;;11.67;;
19167;SDS011;9716;53.114;18.040;2023-04-06T03:44:11;30.00;;;12.53;;
19167;SDS011;9716;53.114;18.040;2023-04-06T03:46:39;26.37;;;11.33;;
19167;SDS011;9716;53.114;18.040;2023-04-06T03:49:07;26.57;;;10.23;;
19167;SDS011;9716;53.114;18.040;2023-04-06T03:51:36;29.60;;;11.57;;
19167;SDS011;9716;53.114;18.040;2023-04-06T03:54:04;25.43;;;10.63;;
19167;SDS011;9716;53.114;18.040;2023-04-06T03:56:33;34.53;;;12.33;;
19167;SDS011;9716;53.114;18.040;2023-04-06T03:59:03;34.03;;;12.97;;
19167;SDS011;9716;53.114;18.040;2023-04-06T04:01:32;36.57;;;12.70;;
19167;SDS011;9716;53.114;18.040;2023-04-06T04:04:01;25.50;;;12.87;;
19167;SDS011;9716;53.114;18.040;2023-04-06T04:06:29;26.00;;;12.57;;
19167;SDS011;9716;53.114;18.040;2023-04-06T04:08:58;33.30;;;11.93;;
19167;SDS011;9716;53.114;18.040;2023-04-06T04:11:26;39.30;;;11.53;;
19167;SDS011;9716;53.114;18.040;2023-04-06T04:13:55;24.67;;;11.13;;
19167;SDS011;9716;53.114;18.040;2023-04-06T04:16:24;32.60;;;11.27;;
19167;SDS011;9716;53.114;18.040;2023-04-06T04:18:53;31.63;;;11.67;;
19167;SDS011;9716;53.114;18.040;2023-04-06T04:21:21;28.27;;;11.63;;
19167;SDS011;9716;53.114;18.040;2023-04-06T04:23:50;30.43;;;12.07;;
19167;SDS011;9716;53.114;18.040;2023-04-06T04:26:19;24.17;;;10.90;;
19167;SDS011;9716;53.114;18.040;2023-04-06T04:28:47;26.27;;;11.37;;
19167;SDS011;9716;53.114;18.040;2023-04-06T04:31:16;24.27;;;11.27;;
19167;SDS011;9716;53.114;18.040;2023-04-06T04:33:48;22.00;;;10.33;;
19167;SDS011;9716;53.114;18.040;2023-04-06T04:36:16;26.53;;;10.93;;
19167;SDS011;9716;53.114;18.040;2023-04-06T04:38:45;27.70;;;12.40;;
19167;SDS011;9716;53.114;18.040;2023-04-06T04:41:13;26.70;;;11.37;;
19167;SDS011;9716;53.114;18.040;2023-04-06T04:43:42;39.40;;;12.10;;
19167;SDS011;9716;53.114;18.040;2023-04-06T04:46:10;28.50;;;11.07;;
19167;SDS011;9716;53.114;18.040;2023-04-06T04:48:39;26.97;;;11.83;;
19167;SDS011;9716;53.114;18.040;2023-04-06T04:51:08;26.70;;;11.40;;
19167;SDS011;9716;53.114;18.040;2023-04-06T04:53:37;24.13;;;11.63;;
19167;SDS011;9716;53.114;18.040;2023-04-06T04:56:05;24.63;;;11.63;;
19167;SDS011;9716;53.114;18.040;2023-04-06T04:58:34;31.30;;;11.73;;
19167;SDS011;9716;53.114;18.040;2023-04-06T05:01:02;29.83;;;12.63;;
19167;SDS011;9716;53.114;18.040;2023-04-06T05:03:31;32.67;;;12.80;;
19167;SDS011;9716;53.114;18.040;2023-04-06T05:06:00;39.53;;;14.73;;
19167;SDS011;9716;53.114;18.040;2023-04-06T05:08:30;29.90;;;12.97;;
19167;SDS011;9716;53.114;18.040;2023-04-06T05:10:59;45.47;;;14.60;;
19167;SDS011;9716;53.114;18.040;2023-04-06T05:13:29;37.53;;;13.17;;
19167;SDS011;9716;53.114;18.040;2023-04-06T05:15:57;36.57;;;12.57;;
19167;SDS011;9716;53.114;18.040;2023-04-06T05:18:26;30.67;;;12.77;;
19167;SDS011;9716;53.114;18.040;2023-04-06T05:20:54;31.97;;;12.77;;
19167;SDS011;9716;53.114;18.040;2023-04-06T05:23:23;31.10;;;13.67;;
19167;SDS011;9716;53.114;18.040;2023-04-06T05:25:53;32.17;;;12.53;;
19167;SDS011;9716;53.114;18.040;2023-04-06T05:28:23;32.87;;;11.90;;
19167;SDS011;9716;53.114;18.040;2023-04-06T05:30:52;37.17;;;14.00;;
19167;SDS011;9716;53.114;18.040;2023-04-06T05:36:18;35.17;;;13.17;;
19167;SDS011;9716;53.114;18.040;2023-04-06T05:38:47;28.73;;;12.33;;
19167;SDS011;9716;53.114;18.040;2023-04-06T05:41:18;41.17;;;14.37;;
19167;SDS011;9716;53.114;18.040;2023-04-06T05:43:46;31.37;;;12.57;;
19167;SDS011;9716;53.114;18.040;2023-04-06T05:46:15;29.63;;;11.83;;
19167;SDS011;9716;53.114;18.040;2023-04-06T05:48:43;25.23;;;11.73;;
19167;SDS011;9716;53.114;18.040;2023-04-06T05:51:12;28.63;;;11.43;;
19167;SDS011;9716;53.114;18.040;2023-04-06T05:53:41;25.50;;;11.20;;
19167;SDS011;9716;53.114;18.040;2023-04-06T05:56:09;31.73;;;11.27;;
19167;SDS011;9716;53.114;18.040;2023-04-06T05:58:39;31.37;;;12.43;;
19167;SDS011;9716;53.114;18.040;2023-04-06T06:01:07;22.33;;;9.83;;
19167;SDS011;9716;53.114;18.040;2023-04-06T06:03:36;21.30;;;9.93;;
19167;SDS011;9716;53.114;18.040;2023-04-06T06:06:05;28.87;;;10.93;;
19167;SDS011;9716;53.114;18.040;2023-04-06T06:08:33;26.40;;;11.30;;
19167;SDS011;9716;53.114;18.040;2023-04-06T06:11:02;26.83;;;11.10;;
19167;SDS011;9716;53.114;18.040;2023-04-06T06:13:30;27.97;;;10.30;;
19167;SDS011;9716;53.114;18.040;2023-04-06T06:16:00;26.77;;;10.43;;
19167;SDS011;9716;53.114;18.040;2023-04-06T06:18:32;24.70;;;9.60;;
19167;SDS011;9716;53.114;18.040;2023-04-06T06:21:00;26.20;;;11.03;;
19167;SDS011;9716;53.114;18.040;2023-04-06T06:23:29;29.10;;;11.67;;
19167;SDS011;9716;53.114;18.040;2023-04-06T06:25:57;21.20;;;8.70;;
19167;SDS011;9716;53.114;18.040;2023-04-06T06:28:28;22.25;;;10.07;;
19167;SDS011;9716;53.114;18.040;2023-04-06T06:30:56;27.67;;;9.33;;
19167;SDS011;9716;53.114;18.040;2023-04-06T06:33:26;24.93;;;9.67;;
19167;SDS011;9716;53.114;18.040;2023-04-06T06:35:55;18.83;;;9.13;;
19167;SDS011;9716;53.114;18.040;2023-04-06T06:38:23;20.67;;;8.83;;
19167;SDS011;9716;53.114;18.040;2023-04-06T06:40:52;19.00;;;8.70;;
19167;SDS011;9716;53.114;18.040;2023-04-06T06:43:21;26.03;;;9.57;;
19167;SDS011;9716;53.114;18.040;2023-04-06T06:45:50;23.73;;;10.30;;
19167;SDS011;9716;53.114;18.040;2023-04-06T06:48:18;21.08;;;8.63;;
19167;SDS011;9716;53.114;18.040;2023-04-06T06:50:48;20.35;;;8.70;;
19167;SDS011;9716;53.114;18.040;2023-04-06T06:53:17;20.63;;;9.38;;
19167;SDS011;9716;53.114;18.040;2023-04-06T06:55:45;26.83;;;8.03;;
19167;SDS011;9716;53.114;18.040;2023-04-06T06:58:17;16.27;;;7.63;;
19167;SDS011;9716;53.114;18.040;2023-04-06T07:00:46;19.07;;;8.63;;
19167;SDS011;9716;53.114;18.040;2023-04-06T07:03:15;21.83;;;9.10;;
19167;SDS011;9716;53.114;18.040;2023-04-06T07:05:45;22.63;;;8.07;;
19167;SDS011;9716;53.114;18.040;2023-04-06T07:08:18;18.00;;;7.57;;
19167;SDS011;9716;53.114;18.040;2023-04-06T07:10:46;24.30;;;8.33;;
19167;SDS011;9716;53.114;18.040;2023-04-06T07:13:15;24.70;;;7.70;;
19167;SDS011;9716;53.114;18.040;2023-04-06T07:15:48;26.75;;;7.80;;
19167;SDS011;9716;53.114;18.040;2023-04-06T07:18:17;19.83;;;9.23;;
19167;SDS011;9716;53.114;18.040;2023-04-06T07:20:46;14.33;;;7.43;;
19167;SDS011;9716;53.114;18.040;2023-04-06T07:23:15;18.70;;;8.27;;
19167;SDS011;9716;53.114;18.040;2023-04-06T07:25:44;18.92;;;8.77;;
19167;SDS011;9716;53.114;18.040;2023-04-06T07:28:16;14.88;;;7.82;;
19167;SDS011;9716;53.114;18.040;2023-04-06T07:30:44;15.88;;;7.90;;
19167;SDS011;9716;53.114;18.040;2023-04-06T07:33:13;20.35;;;8.98;;
19167;SDS011;9716;53.114;18.040;2023-04-06T07:35:41;17.92;;;7.15;;
19167;SDS011;9716;53.114;18.040;2023-04-06T07:38:10;14.65;;;6.78;;
19167;SDS011;9716;53.114;18.040;2023-04-06T07:40:38;15.82;;;7.63;;
19167;SDS011;9716;53.114;18.040;2023-04-06T07:43:08;19.73;;;6.75;;
19167;SDS011;9716;53.114;18.040;2023-04-06T07:45:37;13.80;;;6.93;;
19167;SDS011;9716;53.114;18.040;2023-04-06T07:48:05;15.68;;;6.78;;
19167;SDS011;9716;53.114;18.040;2023-04-06T07:50:36;18.92;;;6.85;;
19167;SDS011;9716;53.114;18.040;2023-04-06T07:53:05;12.48;;;6.65;;
19167;SDS011;9716;53.114;18.040;2023-04-06T07:55:33;23.73;;;8.18;;
19167;SDS011;9716;53.114;18.040;2023-04-06T07:58:02;12.77;;;6.68;;
19167;SDS011;9716;53.114;18.040;2023-04-06T08:00:31;12.57;;;6.30;;
19167;SDS011;9716;53.114;18.040;2023-04-06T08:03:01;15.60;;;7.03;;
19167;SDS011;9716;53.114;18.040;2023-04-06T08:05:29;9.63;;;4.88;;
19167;SDS011;9716;53.114;18.040;2023-04-06T08:07:58;8.20;;;4.72;;
19167;SDS011;9716;53.114;18.040;2023-04-06T08:10:26;10.05;;;4.45;;
19167;SDS011;9716;53.114;18.040;2023-04-06T08:12:55;7.68;;;3.90;;
19167;SDS011;9716;53.114;18.040;2023-04-06T08:15:23;5.90;;;3.72;;
19167;SDS011;9716;53.114;18.040;2023-04-06T08:17:53;7.45;;;3.90;;
19167;SDS011;9716;53.114;18.040;2023-04-06T08:20:23;11.05;;;4.38;;
19167;SDS011;9716;53.114;18.040;2023-04-06T08:22:52;8.65;;;3.65;;
19167;SDS011;9716;53.114;18.040;2023-04-06T08:25:20;5.47;;;3.45;;
19167;SDS011;9716;53.114;18.040;2023-04-06T08:27:49;7.18;;;3.63;;
19167;SDS011;9716;53.114;18.040;2023-04-06T08:30:18;7.38;;;2.78;;
19167;SDS011;9716;53.114;18.040;2023-04-06T08:32:46;7.00;;;3.35;;
19167;SDS011;9716;53.114;18.040;2023-04-06T08:35:16;7.82;;;3.00;;
19167;SDS011;9716;53.114;18.040;2023-04-06T08:37:45;5.03;;;3.15;;
19167;SDS011;9716;53.114;18.040;2023-04-06T08:40:13;6.70;;;3.67;;
19167;SDS011;9716;53.114;18.040;2023-04-06T08:42:44;7.30;;;3.25;;
19167;SDS011;9716;53.114;18.040;2023-04-06T08:45:17;9.43;;;3.15;;
19167;SDS011;9716;53.114;18.040;2023-04-06T08:47:50;6.40;;;3.20;;
19167;SDS011;9716;53.114;18.040;2023-04-06T08:50:20;12.73;;;3.67;;
19167;SDS011;9716;53.114;18.040;2023-04-06T08:52:52;6.75;;;2.45;;
19167;SDS011;9716;53.114;18.040;2023-04-06T08:55:20;6.18;;;3.25;;
19167;SDS011;9716;53.114;18.040;2023-04-06T08:57:49;5.72;;;2.97;;
19167;SDS011;9716;53.114;18.040;2023-04-06T09:00:20;3.28;;;2.47;;
19167;SDS011;9716;53.114;18.040;2023-04-06T09:02:49;5.03;;;2.95;;
19167;SDS011;9716;53.114;18.040;2023-04-06T09:05:20;5.82;;;2.90;;
19167;SDS011;9716;53.114;18.040;2023-04-06T09:07:52;6.40;;;3.05;;
19167;SDS011;9716;53.114;18.040;2023-04-06T09:10:20;7.25;;;2.97;;
19167;SDS011;9716;53.114;18.040;2023-04-06T09:12:51;3.97;;;2.45;;
19167;SDS011;9716;53.114;18.040;2023-04-06T09:15:30;4.63;;;2.90;;
19167;SDS011;9716;53.114;18.040;2023-04-06T09:17:59;4.63;;;2.72;;
19167;SDS011;9716;53.114;18.040;2023-04-06T09:20:28;7.78;;;2.72;;
19167;SDS011;9716;53.114;18.040;2023-04-06T09:22:57;8.23;;;2.88;;
19167;SDS011;9716;53.114;18.040;2023-04-06T09:25:26;7.93;;;3.45;;
19167;SDS011;9716;53.114;18.040;2023-04-06T09:27:58;7.13;;;3.25;;
19167;SDS011;9716;53.114;18.040;2023-04-06T09:30:27;9.30;;;3.58;;
19167;SDS011;9716;53.114;18.040;2023-04-06T09:32:56;5.25;;;3.13;;
19167;SDS011;9716;53.114;18.040;2023-04-06T09:35:26;7.50;;;3.50;;
19167;SDS011;9716;53.114;18.040;2023-04-06T09:37:58;8.55;;;3.72;;
19167;SDS011;9716;53.114;18.040;2023-04-06T09:40:26;7.63;;;3.42;;
19167;SDS011;9716;53.114;18.040;2023-04-06T09:42:56;4.75;;;2.70;;
19167;SDS011;9716;53.114;18.040;2023-04-06T09:45:26;6.60;;;3.28;;
19167;SDS011;9716;53.114;18.040;2023-04-06T09:47:57;6.57;;;3.40;;
19167;SDS011;9716;53.114;18.040;2023-04-06T09:50:26;6.90;;;2.92;;
19167;SDS011;9716;53.114;18.040;2023-04-06T09:52:56;4.63;;;2.80;;
19167;SDS011;9716;53.114;18.040;2023-04-06T09:55:30;8.00;;;3.35;;
19167;SDS011;9716;53.114;18.040;2023-04-06T09:58:03;7.28;;;2.47;;
19167;SDS011;9716;53.114;18.040;2023-04-06T10:00:34;2.33;;;2.13;;
19167;SDS011;9716;53.114;18.040;2023-04-06T10:03:13;5.05;;;2.83;;
19167;SDS011;9716;53.114;18.040;2023-04-06T10:05:50;8.20;;;3.63;;
19167;SDS011;9716;53.114;18.040;2023-04-06T10:08:27;3.67;;;2.60;;
19167;SDS011;9716;53.114;18.040;2023-04-06T10:10:58;7.05;;;2.67;;
19167;SDS011;9716;53.114;18.040;2023-04-06T10:13:30;4.68;;;2.67;;
19167;SDS011;9716;53.114;18.040;2023-04-06T10:16:01;8.27;;;2.97;;
19167;SDS011;9716;53.114;18.040;2023-04-06T10:18:30;5.20;;;2.75;;
19167;SDS011;9716;53.114;18.040;2023-04-06T10:21:00;4.13;;;2.75;;
19167;SDS011;9716;53.114;18.040;2023-04-06T10:23:36;5.00;;;2.60;;
19167;SDS011;9716;53.114;18.040;2023-04-06T10:26:12;11.13;;;2.33;;
19167;SDS011;9716;53.114;18.040;2023-04-06T10:28:43;4.88;;;2.60;;
19167;SDS011;9716;53.114;18.040;2023-04-06T10:31:13;6.95;;;2.33;;
19167;SDS011;9716;53.114;18.040;2023-04-06T10:33:42;5.40;;;2.47;;
19167;SDS011;9716;53.114;18.040;2023-04-06T10:36:25;8.38;;;3.00;;
19167;SDS011;9716;53.114;18.040;2023-04-06T10:38:57;5.75;;;3.13;;
19167;SDS011;9716;53.114;18.040;2023-04-06T10:41:31;8.13;;;2.75;;
19167;SDS011;9716;53.114;18.040;2023-04-06T10:44:01;3.20;;;2.50;;
19167;SDS011;9716;53.114;18.040;2023-04-06T10:46:30;6.43;;;2.90;;
19167;SDS011;9716;53.114;18.040;2023-04-06T10:49:09;4.05;;;2.00;;
19167;SDS011;9716;53.114;18.040;2023-04-06T10:51:39;8.80;;;3.03;;
19167;SDS011;9716;53.114;18.040;2023-04-06T10:54:09;5.22;;;2.80;;
19167;SDS011;9716;53.114;18.040;2023-04-06T10:56:40;9.02;;;3.10;;
19167;SDS011;9716;53.114;18.040;2023-04-06T10:59:08;3.65;;;2.53;;
19167;SDS011;9716;53.114;18.040;2023-04-06T11:01:37;14.05;;;4.07;;
19167;SDS011;9716;53.114;18.040;2023-04-06T11:04:06;6.15;;;2.80;;
19167;SDS011;9716;53.114;18.040;2023-04-06T11:06:37;7.00;;;2.90;;
19167;SDS011;9716;53.114;18.040;2023-04-06T11:09:06;12.80;;;3.97;;
19167;SDS011;9716;53.114;18.040;2023-04-06T11:11:38;9.48;;;3.28;;
19167;SDS011;9716;53.114;18.040;2023-04-06T11:14:09;4.70;;;2.60;;
19167;SDS011;9716;53.114;18.040;2023-04-06T11:16:38;6.50;;;2.65;;
19167;SDS011;9716;53.114;18.040;2023-04-06T11:19:06;5.97;;;2.42;;
19167;SDS011;9716;53.114;18.040;2023-04-06T11:21:36;4.38;;;2.40;;
19167;SDS011;9716;53.114;18.040;2023-04-06T11:24:07;5.97;;;3.15;;
19167;SDS011;9716;53.114;18.040;2023-04-06T11:26:39;3.80;;;2.45;;
19167;SDS011;9716;53.114;18.040;2023-04-06T11:29:10;6.45;;;2.83;;
19167;SDS011;9716;53.114;18.040;2023-04-06T11:31:40;4.20;;;2.85;;
19167;SDS011;9716;53.114;18.040;2023-04-06T11:34:09;3.67;;;2.13;;
19167;SDS011;9716;53.114;18.040;2023-04-06T11:36:42;4.35;;;2.65;;
19167;SDS011;9716;53.114;18.040;2023-04-06T11:39:17;7.05;;;2.63;;
19167;SDS011;9716;53.114;18.040;2023-04-06T11:41:47;4.88;;;2.50;;
19167;SDS011;9716;53.114;18.040;2023-04-06T11:44:26;4.90;;;2.42;;
19167;SDS011;9716;53.114;18.040;2023-04-06T11:46:58;5.75;;;2.75;;
19167;SDS011;9716;53.114;18.040;2023-04-06T11:49:28;10.30;;;2.42;;
19167;SDS011;9716;53.114;18.040;2023-04-06T11:51:58;4.88;;;2.47;;
19167;SDS011;9716;53.114;18.040;2023-04-06T11:54:32;3.47;;;2.22;;
19167;SDS011;9716;53.114;18.040;2023-04-06T11:57:02;4.32;;;2.92;;
19167;SDS011;9716;53.114;18.040;2023-04-06T11:59:32;8.73;;;2.63;;
19167;SDS011;9716;53.114;18.040;2023-04-06T12:02:01;6.15;;;2.55;;
19167;SDS011;9716;53.114;18.040;2023-04-06T12:04:30;7.70;;;2.83;;
19167;SDS011;9716;53.114;18.040;2023-04-06T12:06:59;5.55;;;3.08;;
19167;SDS011;9716;53.114;18.040;2023-04-06T12:09:28;4.45;;;2.42;;
19167;SDS011;9716;53.114;18.040;2023-04-06T12:11:58;5.00;;;2.60;;
19167;SDS011;9716;53.114;18.040;2023-04-06T12:14:27;7.47;;;3.00;;
19167;SDS011;9716;53.114;18.040;2023-04-06T12:16:57;4.53;;;2.08;;
19167;SDS011;9716;53.114;18.040;2023-04-06T12:19:26;9.10;;;3.28;;
19167;SDS011;9716;53.114;18.040;2023-04-06T12:21:56;5.22;;;2.63;;
19167;SDS011;9716;53.114;18.040;2023-04-06T12:24:25;6.25;;;2.72;;
19167;SDS011;9716;53.114;18.040;2023-04-06T12:26:53;7.18;;;2.63;;
19167;SDS011;9716;53.114;18.040;2023-04-06T12:29:36;5.00;;;2.45;;
19167;SDS011;9716;53.114;18.040;2023-04-06T12:32:05;3.60;;;2.50;;
19167;SDS011;9716;53.114;18.040;2023-04-06T12:34:34;8.15;;;2.45;;
19167;SDS011;9716;53.114;18.040;2023-04-06T12:37:02;3.25;;;2.65;;
19167;SDS011;9716;53.114;18.040;2023-04-06T12:39:31;4.95;;;2.50;;
19167;SDS011;9716;53.114;18.040;2023-04-06T12:42:00;3.60;;;2.50;;
19167;SDS011;9716;53.114;18.040;2023-04-06T12:44:29;3.60;;;2.17;;
19167;SDS011;9716;53.114;18.040;2023-04-06T12:46:59;8.90;;;3.25;;
19167;SDS011;9716;53.114;18.040;2023-04-06T12:49:28;8.18;;;2.92;;
19167;SDS011;9716;53.114;18.040;2023-04-06T12:51:57;3.17;;;2.03;;
19167;SDS011;9716;53.114;18.040;2023-04-06T12:54:27;3.20;;;2.00;;
19167;SDS011;9716;53.114;18.040;2023-04-06T12:56:55;5.80;;;2.47;;
19167;SDS011;9716;53.114;18.040;2023-04-06T12:59:24;5.95;;;2.58;;
19167;SDS011;9716;53.114;18.040;2023-04-06T13:01:53;3.95;;;2.08;;
19167;SDS011;9716;53.114;18.040;2023-04-06T13:04:23;3.65;;;2.50;;
19167;SDS011;9716;53.114;18.040;2023-04-06T13:06:51;4.13;;;2.25;;
19167;SDS011;9716;53.114;18.040;2023-04-06T13:09:20;4.57;;;2.42;;
19167;SDS011;9716;53.114;18.040;2023-04-06T13:11:48;6.25;;;2.53;;
19167;SDS011;9716;53.114;18.040;2023-04-06T13:14:17;5.75;;;2.88;;
19167;SDS011;9716;53.114;18.040;2023-04-06T13:16:45;4.25;;;2.55;;
19167;SDS011;9716;53.114;18.040;2023-04-06T13:19:14;15.90;;;2.78;;
19167;SDS011;9716;53.114;18.040;2023-04-06T13:21:44;4.03;;;2.53;;
19167;SDS011;9716;53.114;18.040;2023-04-06T13:24:13;6.22;;;2.42;;
19167;SDS011;9716;53.114;18.040;2023-04-06T13:26:43;3.35;;;1.98;;
19167;SDS011;9716;53.114;18.040;2023-04-06T13:29:12;5.65;;;2.33;;
19167;SDS011;9716;53.114;18.040;2023-04-06T13:31:40;6.53;;;2.75;;
19167;SDS011;9716;53.114;18.040;2023-04-06T13:34:09;8.38;;;2.83;;
19167;SDS011;9716;53.114;18.040;2023-04-06T13:36:37;4.97;;;2.50;;
19167;SDS011;9716;53.114;18.040;2023-04-06T13:39:10;6.88;;;3.00;;
19167;SDS011;9716;53.114;18.040;2023-04-06T13:41:38;5.60;;;3.10;;
19167;SDS011;9716;53.114;18.040;2023-04-06T13:44:08;4.50;;;2.85;;
19167;SDS011;9716;53.114;18.040;2023-04-06T13:46:36;6.38;;;3.67;;
19167;SDS011;9716;53.114;18.040;2023-04-06T13:49:05;10.77;;;3.08;;
19167;SDS011;9716;53.114;18.040;2023-04-06T13:51:33;6.88;;;3.42;;
19167;SDS011;9716;53.114;18.040;2023-04-06T13:54:02;12.75;;;3.20;;
19167;SDS011;9716;53.114;18.040;2023-04-06T13:56:32;13.32;;;5.25;;
19167;SDS011;9716;53.114;18.040;2023-04-06T13:59:00;8.48;;;2.78;;
19167;SDS011;9716;53.114;18.040;2023-04-06T14:01:30;6.38;;;2.50;;
19167;SDS011;9716;53.114;18.040;2023-04-06T14:04:01;9.98;;;2.78;;
19167;SDS011;9716;53.114;18.040;2023-04-06T14:06:30;5.75;;;2.67;;
19167;SDS011;9716;53.114;18.040;2023-04-06T14:08:59;6.97;;;2.63;;
19167;SDS011;9716;53.114;18.040;2023-04-06T14:11:27;6.47;;;2.80;;
19167;SDS011;9716;53.114;18.040;2023-04-06T14:13:58;4.65;;;2.35;;
19167;SDS011;9716;53.114;18.040;2023-04-06T14:16:27;12.35;;;2.95;;
19167;SDS011;9716;53.114;18.040;2023-04-06T14:18:56;8.38;;;3.67;;
19167;SDS011;9716;53.114;18.040;2023-04-06T14:21:25;8.82;;;3.05;;
19167;SDS011;9716;53.114;18.040;2023-04-06T14:23:54;4.70;;;2.55;;
19167;SDS011;9716;53.114;18.040;2023-04-06T14:26:25;4.32;;;2.90;;
19167;SDS011;9716;53.114;18.040;2023-04-06T14:28:54;8.50;;;3.50;;
19167;SDS011;9716;53.114;18.040;2023-04-06T14:31:24;7.07;;;3.35;;
19167;SDS011;9716;53.114;18.040;2023-04-06T14:33:53;9.50;;;3.47;;
19167;SDS011;9716;53.114;18.040;2023-04-06T14:36:21;9.63;;;4.35;;
19167;SDS011;9716;53.114;18.040;2023-04-06T14:38:50;4.93;;;3.38;;
19167;SDS011;9716;53.114;18.040;2023-04-06T14:41:19;8.82;;;3.17;;
19167;SDS011;9716;53.114;18.040;2023-04-06T14:43:50;10.30;;;3.25;;
19167;SDS011;9716;53.114;18.040;2023-04-06T14:46:19;8.77;;;3.28;;
19167;SDS011;9716;53.114;18.040;2023-04-06T14:48:49;4.47;;;3.35;;
19167;SDS011;9716;53.114;18.040;2023-04-06T14:51:18;7.60;;;3.33;;